Time;durP1;ratioP1;P1;durP2;ratioP2;P2;SDS_P1;SDS_P2;PMS_P1;PMS_P2;Temp;Humidity;BMP_temperature;BMP_pressure;BME280_temperature;BME280_humidity;BME280_pressure;Samples;Min_cycle;Max_cycle;Signal;HPM_P1;HPM_P2
2022/01/16 00:04:06;;;;;;;83.85;43.75;;;76.90;1868.80;;;;;;5072868;28;20024;-60
2022/01/16 00:06:33;;;;;;;80.88;43.60;;;77.00;1894.40;;;;;;5074097;28;20040;-60
2022/01/16 00:08:59;;;;;;;83.07;43.70;;;77.00;1843.20;;;;;;5076535;28;20020;-60
2022/01/16 00:11:25;;;;;;;84.57;42.80;;;76.90;1868.80;;;;;;5076537;28;20489;-60
2022/01/16 00:13:51;;;;;;;82.13;41.90;;;77.00;1894.40;;;;;;5076041;28;20032;-60
2022/01/16 00:16:17;;;;;;;78.70;41.83;;;77.00;1843.20;;;;;;5076886;28;20070;-60
2022/01/16 00:18:52;;;;;;;82.80;41.83;;;77.00;1792.00;;;;;;5076239;28;20072;-61
2022/01/16 00:21:33;;;;;;;81.10;43.47;;;76.90;1792.00;;;;;;5076383;28;20040;-61
2022/01/16 00:23:59;;;;;;;79.00;41.42;;;76.80;1817.60;;;;;;5076240;28;20474;-61
2022/01/16 00:26:25;;;;;;;83.68;43.42;;;52.10;1843.20;;;;;;5076106;28;20051;-60
2022/01/16 00:28:52;;;;;;;84.15;42.45;;;76.80;1868.80;;;;;;5076229;28;20039;-60
2022/01/16 00:31:20;;;;;;;72.25;39.20;;;76.90;1868.80;;;;;;5076272;28;20025;-59
2022/01/16 00:33:46;;;;;;;81.10;38.92;;;77.10;1843.20;;;;;;5075922;28;20067;-60
2022/01/16 00:36:17;;;;;;;74.05;38.55;;;77.10;1843.20;;;;;;5076356;28;20482;-59
2022/01/16 00:38:44;;;;;;;68.20;36.53;;;77.20;1868.80;;;;;;5076069;28;20037;-60
2022/01/16 00:41:11;;;;;;;69.65;37.10;;;77.30;1894.40;;;;;;5075711;28;20477;-60
2022/01/16 00:43:37;;;;;;;68.25;36.75;;;77.30;1868.80;;;;;;5075996;28;20032;-59
2022/01/16 00:46:03;;;;;;;68.78;38.42;;;77.30;1843.20;;;;;;5075956;28;20467;-60
2022/01/16 00:48:29;;;;;;;66.05;35.63;;;77.40;1843.20;;;;;;5075782;28;20028;-59
2022/01/16 00:50:55;;;;;;;56.47;33.40;;;77.30;1868.80;;;;;;5075832;28;20474;-59
2022/01/16 00:53:20;;;;;;;62.30;33.70;;;77.40;1868.80;;;;;;5075675;28;20479;-60
2022/01/16 00:55:46;;;;;;;59.88;34.58;;;77.40;1843.20;;;;;;5075518;28;20146;-60
2022/01/16 00:58:12;;;;;;;65.15;34.83;;;77.30;1843.20;;;;;;5075569;28;20111;-60
2022/01/16 01:00:38;;;;;;;65.25;35.17;;;77.40;1843.20;;;;;;5075565;28;20068;-60
2022/01/16 01:03:06;;;;;;;65.75;35.67;;;77.50;1894.40;;;;;;5075559;28;20039;-60
2022/01/16 01:05:33;;;;;;;85.07;38.05;;;77.40;1894.40;;;;;;5075534;28;20086;-60
2022/01/16 01:07:59;;;;;;;253.35;48.08;;;77.40;2022.40;;;;;;5075364;28;20028;-60
2022/01/16 01:10:30;;;;;;;63.95;35.22;;;77.50;2176.00;;;;;;5075518;28;20033;-60
2022/01/16 01:13:08;;;;;;;60.53;35.33;;;77.60;1996.80;;;;;;5075130;28;20423;-60
2022/01/16 01:15:42;;;;;;;61.72;35.17;;;77.50;1868.80;;;;;;5075283;28;20024;-60
2022/01/16 01:18:09;;;;;;;65.53;34.97;;;77.50;1868.80;;;;;;5075247;28;20374;-60
2022/01/16 01:20:34;;;;;;;64.88;36.30;;;77.50;1894.40;;;;;;5075576;28;20115;-59
2022/01/16 01:23:00;;;;;;;63.00;36.80;;;77.50;1868.80;;;;;;5075048;28;20040;-60
2022/01/16 01:25:26;;;;;;;64.07;34.22;;;77.40;1894.40;;;;;;5075029;28;20055;-60
2022/01/16 01:27:51;;;;;;;59.00;33.80;;;77.50;1868.80;;;;;;5075220;28;20489;-60
2022/01/16 01:30:20;;;;;;;64.50;34.35;;;77.40;1843.20;;;;;;5075091;28;20029;-60
2022/01/16 01:32:47;;;;;;;54.65;31.00;;;77.40;1894.40;;;;;;5075101;28;20377;-60
2022/01/16 01:35:16;;;;;;;57.20;31.92;;;77.50;1817.60;;;;;;5075018;28;20153;-60
2022/01/16 01:37:43;;;;;;;52.90;29.63;;;77.40;1868.80;;;;;;5074959;28;20366;-60
2022/01/16 01:40:12;;;;;;;58.03;30.33;;;77.50;1817.60;;;;;;5074733;28;20036;-61
2022/01/16 01:43:04;;;;;;;54.58;31.90;;;77.50;1817.60;;;;;;5074553;28;20017;-60
2022/01/16 01:51:20;;;;;;;78.18;41.25;;;77.40;1868.80;;;;;;5074616;28;20031;-60
2022/01/16 01:53:47;;;;;;;83.05;42.65;;;77.50;1792.00;;;;;;5074229;28;20032;-59
2022/01/16 01:56:17;;;;;;;80.90;42.40;;;77.20;1843.20;;;;;;5074277;28;20028;-60
2022/01/16 01:58:43;;;;;;;78.68;41.67;;;77.40;1843.20;;;;;;5074345;28;20044;-60
2022/01/16 02:01:09;;;;;;;73.07;38.85;;;77.30;1792.00;;;;;;5074349;28;20450;-60
2022/01/16 02:06:21;;;;;;;72.57;38.08;;;77.30;1766.40;;;;;;5074102;28;20378;-60
2022/01/16 02:08:51;;;;;;;68.07;36.92;;;77.00;1817.60;;;;;;5074145;28;20081;-60
2022/01/16 02:11:18;;;;;;;71.38;37.45;;;77.10;1894.40;;;;;;5074020;28;20484;-59
2022/01/16 02:14:00;;;;;;;68.10;35.85;;;77.00;1766.40;;;;;;5074297;28;20044;-60
2022/01/16 02:36:01;;;;;;;73.85;38.97;;;51.90;1843.20;;;;;;5032069;28;20529;-59
2022/01/16 02:38:27;;;;;;;82.97;41.55;;;52.00;1894.40;;;;;;5032125;28;20041;-60
2022/01/16 02:41:02;;;;;;;92.22;44.72;;;51.90;1817.60;;;;;;5031534;28;20404;-61
2022/01/16 02:43:33;;;;;;;;;;;51.90;1843.20;;;;;;5032086;28;20100;-61
2022/01/16 02:48:41;;;;;;;66.85;36.35;;;51.90;1817.60;;;;;;5031706;28;20045;-61
2022/01/16 02:51:07;;;;;;;69.75;36.33;;;51.80;1868.80;;;;;;5031614;28;20080;-61
2022/01/16 02:53:33;;;;;;;60.97;33.33;;;51.90;1894.40;;;;;;5031846;28;20029;-61
2022/01/16 02:56:00;;;;;;;60.90;34.42;;;51.80;1817.60;;;;;;5031295;28;20030;-60
2022/01/16 02:58:26;;;;;;;61.40;34.58;;;51.90;1843.20;;;;;;5031583;28;20037;-60
2022/01/16 03:00:52;;;;;;;64.18;34.20;;;51.90;1868.80;;;;;;5031479;28;20383;-60
2022/01/16 03:03:18;;;;;;;67.50;34.95;;;51.90;1843.20;;;;;;5031458;28;20125;-62
2022/01/16 03:05:43;;;;;;;63.58;34.60;;;51.80;1868.80;;;;;;5031330;28;20104;-61
2022/01/16 03:08:09;;;;;;;67.57;34.10;;;51.90;1868.80;;;;;;5031354;28;20101;-60
2022/01/16 03:13:04;;;;;;;65.93;35.38;;;51.80;1843.20;;;;;;5073350;28;20028;-61
2022/01/16 03:15:30;;;;;;;62.63;34.88;;;51.90;1894.40;;;;;;5073563;28;20043;-61
2022/01/16 03:23:10;;;;;;;65.63;33.25;;;51.80;1894.40;;;;;;5073513;28;20071;-61
2022/01/16 03:25:36;;;;;;;54.95;31.15;;;51.70;1868.80;;;;;;5073307;28;20052;-59
2022/01/16 03:28:02;;;;;;;69.28;35.63;;;51.60;1843.20;;;;;;5073386;28;20035;-60
2022/01/16 03:30:28;;;;;;;67.30;36.58;;;51.60;1843.20;;;;;;5073888;28;20350;-60
2022/01/16 03:32:54;;;;;;;71.22;38.35;;;51.70;1894.40;;;;;;5073389;28;20039;-58
2022/01/16 03:35:20;;;;;;;67.75;37.60;;;51.50;1868.80;;;;;;5073393;28;20031;-61
2022/01/16 03:37:46;;;;;;;63.53;34.92;;;51.50;1843.20;;;;;;5073136;28;20413;-59
2022/01/16 03:40:12;;;;;;;62.83;34.35;;;51.30;1817.60;;;;;;5073166;28;20034;-59
2022/01/16 03:42:39;;;;;;;62.35;35.55;;;51.20;1843.20;;;;;;5075515;28;20452;-58
2022/01/16 03:45:06;;;;;;;70.13;36.67;;;26.50;1868.80;;;;;;5077216;28;20336;-59
2022/01/16 03:47:32;;;;;;;63.40;35.25;;;51.20;1945.60;;;;;;5076841;28;20025;-58
2022/01/16 03:49:59;;;;;;;58.42;34.03;;;51.30;1894.40;;;;;;5076983;28;20094;-59
2022/01/16 03:52:25;;;;;;;63.38;34.67;;;51.20;1868.80;;;;;;5076963;28;20063;-58
2022/01/16 03:54:50;;;;;;;63.92;35.83;;;51.20;1894.40;;;;;;5076616;28;20052;-59
2022/01/16 03:57:16;;;;;;;70.75;35.83;;;51.30;1920.00;;;;;;5076917;28;20433;-59
2022/01/16 03:59:42;;;;;;;64.05;36.80;;;51.30;1843.20;;;;;;5076282;28;20398;-59
2022/01/16 04:02:08;;;;;;;66.28;35.92;;;51.30;1817.60;;;;;;5076660;28;20370;-58
2022/01/16 04:04:34;;;;;;;69.47;36.55;;;51.40;1894.40;;;;;;5076421;28;20041;-59
2022/01/16 04:07:00;;;;;;;59.42;34.60;;;51.50;1868.80;;;;;;5076660;28;20024;-58
2022/01/16 04:09:27;;;;;;;63.13;34.35;;;51.50;1817.60;;;;;;5076618;28;20028;-58
2022/01/16 04:11:56;;;;;;;62.35;34.00;;;51.50;1894.40;;;;;;5076484;28;20028;-58
2022/01/16 04:15:31;;;;;;;64.85;34.17;;;51.60;1843.20;;;;;;5076344;28;20062;-59
2022/01/16 04:17:19;;;;;;;58.88;32.65;;;51.60;1817.60;;;;;;5076230;28;20108;-59
2022/01/16 04:19:46;;;;;;;61.10;32.42;;;51.40;1817.60;;;;;;5076461;28;20377;-59
2022/01/16 04:22:12;;;;;;;59.17;32.78;;;51.40;1894.40;;;;;;5076389;28;20032;-58
2022/01/16 04:24:39;;;;;;;58.45;33.63;;;51.50;1843.20;;;;;;5076326;28;20107;-58
2022/01/16 04:27:06;;;;;;;59.38;33.60;;;51.50;1817.60;;;;;;5076182;28;20024;-58
2022/01/16 04:29:31;;;;;;;57.90;32.60;;;51.50;1817.60;;;;;;5076210;28;20085;-58
2022/01/16 04:31:57;;;;;;;63.67;35.95;;;51.30;1817.60;;;;;;5076255;28;20028;-58
2022/01/16 04:34:23;;;;;;;69.70;38.92;;;51.20;1843.20;;;;;;5076099;28;20359;-57
2022/01/16 04:36:48;;;;;;;71.68;39.35;;;51.20;1868.80;;;;;;5076308;28;20021;-58
2022/01/16 04:39:20;;;;;;;71.72;36.03;;;51.30;1868.80;;;;;;5076055;28;20033;-58
2022/01/16 04:44:30;;;;;;;70.25;37.90;;;51.30;1868.80;;;;;;5075786;28;20544;-59
2022/01/16 04:46:57;;;;;;;83.35;42.65;;;51.30;1843.20;;;;;;5076095;28;20055;-58
2022/01/16 04:49:23;;;;;;;81.35;42.45;;;51.40;1920.00;;;;;;5076041;28;20358;-59
2022/01/16 04:51:48;;;;;;;83.55;42.80;;;51.40;1945.60;;;;;;5075323;28;20112;-59
2022/01/16 04:54:14;;;;;;;81.68;42.05;;;51.40;1971.20;;;;;;5075597;28;20035;-59
2022/01/16 04:56:40;;;;;;;81.32;42.30;;;51.50;1920.00;;;;;;5075440;28;20020;-58
2022/01/16 04:59:06;;;;;;;87.13;44.67;;;51.50;1843.20;;;;;;5075063;28;20048;-58
2022/01/16 05:01:33;;;;;;;91.35;45.08;;;51.40;1868.80;;;;;;5075467;28;20028;-58
2022/01/16 05:03:59;;;;;;;90.55;42.15;;;51.50;1894.40;;;;;;5076136;28;20025;-58
2022/01/16 05:06:25;;;;;;;89.35;44.47;;;51.50;1817.60;;;;;;5075625;28;20492;-59
2022/01/16 05:08:50;;;;;;;81.88;42.97;;;51.40;1868.80;;;;;;5075515;28;20028;-58
2022/01/16 05:11:21;;;;;;;86.50;45.00;;;51.40;1843.20;;;;;;5075178;28;20025;-59
2022/01/16 05:18:57;;;;;;;86.28;43.05;;;51.60;1817.60;;;;;;5075655;28;20077;-59
2022/01/16 05:21:24;;;;;;;86.70;46.20;;;51.60;1766.40;;;;;;5075109;28;20119;-59
2022/01/16 05:23:50;;;;;;;90.05;47.63;;;51.40;1843.20;;;;;;5075134;28;20459;-58
2022/01/16 05:26:19;;;;;;;93.97;49.13;;;51.60;1792.00;;;;;;5074954;28;20040;-59
2022/01/16 05:28:45;;;;;;;117.70;58.97;;;51.50;1817.60;;;;;;5075144;28;20033;-58
2022/01/16 05:31:11;;;;;;;118.18;60.05;;;51.40;1868.80;;;;;;5075136;28;20051;-59
2022/01/16 05:33:37;;;;;;;128.45;61.58;;;51.60;1792.00;;;;;;5075006;28;20462;-59
2022/01/16 05:36:03;;;;;;;118.72;58.65;;;51.40;1792.00;;;;;;5075167;28;20029;-58
2022/01/16 05:38:29;;;;;;;123.88;57.25;;;51.30;1868.80;;;;;;5074935;28;20071;-58
2022/01/16 05:40:55;;;;;;;109.32;53.92;;;51.40;1766.40;;;;;;5074578;28;20478;-58
2022/01/16 05:43:20;;;;;;;101.88;52.95;;;51.20;1792.00;;;;;;5074565;28;20108;-58
2022/01/16 05:45:46;;;;;;;110.30;51.70;;;51.30;1868.80;;;;;;5074616;28;20028;-58
2022/01/16 05:48:12;;;;;;;102.57;52.50;;;51.20;1766.40;;;;;;5074697;28;20028;-59
2022/01/16 05:50:38;;;;;;;109.50;53.42;;;26.40;1817.60;;;;;;5074674;28;20115;-59
2022/01/16 05:53:03;;;;;;;102.57;51.00;;;26.50;1868.80;;;;;;5074252;28;20032;-59
2022/01/16 05:55:36;;;;;;;114.95;55.45;;;26.40;1792.00;;;;;;5074301;28;20067;-58
2022/01/16 05:58:07;;;;;;;102.47;50.05;;;26.30;1817.60;;;;;;5074431;28;20104;-58
2022/01/16 06:00:33;;;;;;;96.68;47.28;;;26.30;1868.80;;;;;;5074342;28;20033;-59
2022/01/16 06:02:59;;;;;;;103.88;50.33;;;26.20;1843.20;;;;;;5074973;28;20028;-58
2022/01/16 06:05:25;;;;;;;105.80;50.83;;;26.00;1843.20;;;;;;5073668;28;20024;-59
2022/01/16 06:07:55;;;;;;;105.43;51.80;;;26.10;1894.40;;;;;;5074414;28;20036;-58
2022/01/16 06:10:22;;;;;;;115.70;52.58;;;26.00;1868.80;;;;;;5074149;28;20032;-59
2022/01/16 06:12:47;;;;;;;111.30;52.03;;;26.00;1868.80;;;;;;5074081;28;20059;-59
2022/01/16 06:15:13;;;;;;;117.90;51.80;;;25.90;1843.20;;;;;;5074245;28;20061;-59
2022/01/16 06:17:39;;;;;;;102.47;48.17;;;26.00;1894.40;;;;;;5074043;28;20025;-59
2022/01/16 06:20:06;;;;;;;81.63;42.63;;;26.10;1868.80;;;;;;5073887;28;20138;-58
2022/01/16 06:22:31;;;;;;;72.10;37.15;;;26.00;1843.20;;;;;;5074080;28;20051;-59
2022/01/16 06:24:57;;;;;;;68.15;34.90;;;26.10;1894.40;;;;;;5074074;28;20463;-59
2022/01/16 06:27:23;;;;;;;71.40;35.70;;;26.10;1868.80;;;;;;5073741;28;20467;-58
2022/01/16 06:29:49;;;;;;;62.47;34.83;;;26.00;1843.20;;;;;;5074153;28;20103;-58
2022/01/16 06:32:15;;;;;;;57.25;33.20;;;26.00;1843.20;;;;;;5074089;28;20041;-58
2022/01/16 06:34:40;;;;;;;67.20;35.85;;;26.00;1868.80;;;;;;5073706;28;20464;-59
2022/01/16 06:37:06;;;;;;;65.47;35.65;;;26.10;1894.40;;;;;;5074034;28;20055;-58
2022/01/16 06:39:32;;;;;;;64.85;36.55;;;26.10;1843.20;;;;;;5073487;28;20040;-58
2022/01/16 06:41:58;;;;;;;69.78;36.40;;;26.00;1843.20;;;;;;5073633;28;20029;-58
2022/01/16 06:44:24;;;;;;;67.57;35.97;;;25.90;1843.20;;;;;;5073478;28;20097;-58
2022/01/16 06:46:49;;;;;;;75.50;36.78;;;25.80;1843.20;;;;;;5073624;28;20031;-59
2022/01/16 06:49:15;;;;;;;92.15;44.30;;;25.70;1843.20;;;;;;5073759;28;20029;-58
2022/01/16 06:51:41;;;;;;;100.60;48.40;;;25.70;1920.00;;;;;;5073760;28;20024;-63
2022/01/16 06:54:07;;;;;;;94.65;48.92;;;25.90;1920.00;;;;;;5073688;28;20347;-59
2022/01/16 06:56:33;;;;;;;144.43;61.97;;;25.90;1894.40;;;;;;5073383;28;20032;-66
2022/01/16 06:58:59;;;;;;;144.18;60.40;;;25.90;1920.00;;;;;;5073233;28;20447;-58
2022/01/16 07:01:26;;;;;;;124.75;54.65;;;26.00;1945.60;;;;;;5073477;28;20078;-59
2022/01/16 07:03:55;;;;;;;124.50;57.33;;;26.10;1868.80;;;;;;5073488;28;20450;-59
2022/01/16 07:06:22;;;;;;;137.38;62.60;;;26.00;1868.80;;;;;;5073320;28;20494;-60
2022/01/16 07:08:48;;;;;;;158.23;67.50;;;26.10;1971.20;;;;;;5073527;28;20031;-63
2022/01/16 07:11:13;;;;;;;136.40;57.25;;;26.30;1971.20;;;;;;5073241;28;20107;-59
2022/01/16 07:13:39;;;;;;;99.53;48.45;;;26.40;1945.60;;;;;;5073630;28;20446;-59
2022/01/16 07:16:05;;;;;;;87.15;40.78;;;26.50;1920.00;;;;;;5075825;28;20470;-62
2022/01/16 07:18:31;;;;;;;82.15;42.28;;;26.50;1920.00;;;;;;5077695;28;20458;-59
2022/01/16 07:20:57;;;;;;;86.07;46.25;;;26.50;1945.60;;;;;;5077390;28;20040;-63
2022/01/16 07:23:23;;;;;;;108.43;50.72;;;26.50;1920.00;;;;;;5077340;28;20025;-61
2022/01/16 07:25:49;;;;;;;93.45;49.00;;;51.20;1971.20;;;;;;5077509;28;20062;-61
2022/01/16 07:28:15;;;;;;;98.88;49.45;;;51.20;1945.60;;;;;;5077361;28;20028;-61
2022/01/16 07:30:42;;;;;;;90.78;47.38;;;51.30;1945.60;;;;;;5077617;28;20055;-65
2022/01/16 07:33:09;;;;;;;102.25;55.17;;;51.20;1971.20;;;;;;5075845;28;20070;-61
2022/01/16 07:35:35;;;;;;;121.53;62.05;;;51.20;1996.80;;;;;;5077185;28;20029;-62
2022/01/16 07:38:02;;;;;;;152.80;76.80;;;51.20;2022.40;;;;;;5068721;28;20028;-63
2022/01/16 07:40:29;;;;;;;177.02;83.30;;;51.20;2022.40;;;;;;5057022;28;20037;-62
2022/01/16 07:42:55;;;;;;;172.70;81.47;;;51.30;2048.00;;;;;;5057009;28;20031;-69
2022/01/16 07:45:21;;;;;;;182.02;81.03;;;51.30;1996.80;;;;;;5057136;28;20114;-62
2022/01/16 07:47:48;;;;;;;181.15;82.05;;;51.30;1945.60;;;;;;5059587;28;20025;-63
2022/01/16 07:50:15;;;;;;;140.70;67.75;;;51.40;1996.80;;;;;;5067002;28;20024;-64
2022/01/16 07:52:41;;;;;;;129.18;55.00;;;51.40;2022.40;;;;;;5066695;28;20112;-64
2022/01/16 07:55:07;;;;;;;147.75;60.38;;;51.40;2022.40;;;;;;5065273;28;20052;-64
2022/01/16 07:57:32;;;;;;;132.68;59.42;;;51.50;2022.40;;;;;;5067138;28;20085;-66
2022/01/16 07:59:58;;;;;;;164.40;61.35;;;51.60;2099.20;;;;;;5065954;28;20049;-64
2022/01/16 08:02:24;;;;;;;134.82;58.72;;;51.90;2048.00;;;;;;5062932;28;20367;-62
2022/01/16 08:04:50;;;;;;;116.40;54.75;;;52.00;2048.00;;;;;;5067031;28;20073;-63
2022/01/16 08:07:16;;;;;;;104.18;53.42;;;52.00;2022.40;;;;;;5064510;28;20363;-60
2022/01/16 08:09:43;;;;;;;102.78;52.30;;;51.90;2022.40;;;;;;5066486;28;20025;-63
2022/01/16 08:12:11;;;;;;;84.22;46.20;;;52.00;2048.00;;;;;;5064810;28;20032;-62
2022/01/16 08:14:36;;;;;;;89.82;47.72;;;52.00;2022.40;;;;;;5076517;28;20070;-62
2022/01/16 08:17:02;;;;;;;87.60;49.63;;;52.00;2022.40;;;;;;5076431;28;20099;-62
2022/01/16 08:19:28;;;;;;;84.78;46.55;;;52.10;2048.00;;;;;;5076358;28;20025;-63
2022/01/16 08:21:56;;;;;;;137.52;68.93;;;52.10;2022.40;;;;;;5076307;28;20044;-62
2022/01/16 08:24:23;;;;;;;129.77;68.68;;;52.10;2073.60;;;;;;5076795;28;20100;-63
2022/01/16 08:26:49;;;;;;;144.00;76.03;;;76.80;2073.60;;;;;;5075468;28;20055;-62
2022/01/16 08:29:15;;;;;;;172.32;84.53;;;76.80;2048.00;;;;;;5076184;28;20100;-62
2022/01/16 08:31:41;;;;;;;172.95;86.28;;;76.80;2073.60;;;;;;5075960;28;20052;-63
2022/01/16 08:34:06;;;;;;;179.73;88.50;;;76.80;2048.00;;;;;;5076155;28;20481;-63
2022/01/16 08:36:33;;;;;;;190.50;95.63;;;76.90;2048.00;;;;;;5076231;28;20033;-62
2022/01/16 08:38:59;;;;;;;186.65;95.07;;;76.90;2073.60;;;;;;5075941;28;20374;-63
2022/01/16 08:41:25;;;;;;;188.68;96.05;;;76.90;2073.60;;;;;;5075790;28;20099;-63
2022/01/16 08:43:52;;;;;;;174.57;92.60;;;76.90;2073.60;;;;;;5075829;28;20025;-61
2022/01/16 08:46:20;;;;;;;124.60;66.97;;;76.90;2073.60;;;;;;5075978;28;20024;-57
2022/01/16 08:48:47;;;;;;;113.47;59.20;;;77.00;2073.60;;;;;;5074541;28;20048;-57
2022/01/16 08:51:13;;;;;;;96.75;52.75;;;77.00;2073.60;;;;;;5065225;28;20075;-62
2022/01/16 08:53:39;;;;;;;96.40;52.20;;;77.10;2099.20;;;;;;5075606;28;20029;-63
2022/01/16 08:56:05;;;;;;;89.32;50.97;;;77.10;2073.60;;;;;;5075392;28;20077;-62
2022/01/16 08:58:32;;;;;;;94.22;52.28;;;77.20;2073.60;;;;;;5075556;28;20044;-61
2022/01/16 09:00:57;;;;;;;77.97;44.90;;;77.40;2099.20;;;;;;5073671;28;20037;-62
2022/01/16 09:03:23;;;;;;;84.85;49.90;;;77.40;2048.00;;;;;;5070838;28;20039;-59
2022/01/16 09:05:50;;;;;;;114.53;60.67;;;77.40;2073.60;;;;;;5074440;28;20378;-61
2022/01/16 09:08:18;;;;;;;97.35;53.65;;;77.60;2150.40;;;;;;5066369;28;20059;-62
2022/01/16 09:10:44;;;;;;;88.93;51.83;;;77.70;2048.00;;;;;;5062279;28;20434;-61
2022/01/16 09:13:12;;;;;;;84.53;49.95;;;77.70;2048.00;;;;;;5064935;28;20028;-60
2022/01/16 09:15:44;;;;;;;80.03;46.45;;;102.40;2099.20;;;;;;5066804;28;20031;-62
2022/01/16 09:18:10;;;;;;;77.40;47.20;;;102.50;2073.60;;;;;;5066640;28;20120;-60
2022/01/16 09:20:38;;;;;;;76.82;46.58;;;102.70;2124.80;;;;;;5055199;28;20039;-62
2022/01/16 09:23:04;;;;;;;71.53;43.67;;;102.80;2176.00;;;;;;5057831;28;20032;-63
2022/01/16 09:25:30;;;;;;;79.00;46.65;;;102.90;2048.00;;;;;;5055305;28;20025;-63
2022/01/16 09:27:56;;;;;;;75.00;46.60;;;103.00;2073.60;;;;;;5068266;28;20047;-61
2022/01/16 09:30:23;;;;;;;85.32;51.08;;;103.10;2048.00;;;;;;5068269;28;20478;-62
2022/01/16 09:32:49;;;;;;;74.05;44.00;;;103.10;2022.40;;;;;;5075166;28;20403;-58
2022/01/16 09:35:16;;;;;;;77.70;44.95;;;103.20;2022.40;;;;;;5073906;28;20115;-58
2022/01/16 09:37:43;;;;;;;74.72;45.45;;;103.30;2073.60;;;;;;5059067;28;20466;-62
2022/01/16 09:40:12;;;;;;;83.07;44.85;;;128.00;2022.40;;;;;;5061994;28;20060;-58
2022/01/16 09:42:38;;;;;;;81.57;44.78;;;128.10;2124.80;;;;;;5063344;28;20021;-59
2022/01/16 09:45:06;;;;;;;79.57;45.80;;;128.40;2099.20;;;;;;5067384;28;20021;-62
2022/01/16 09:47:31;;;;;;;88.80;51.85;;;128.50;1996.80;;;;;;5074551;28;20027;-61
2022/01/16 09:49:57;;;;;;;88.95;54.85;;;128.50;1996.80;;;;;;5074703;28;20099;-61
2022/01/16 09:52:23;;;;;;;96.70;55.30;;;128.70;2048.00;;;;;;5074590;28;20076;-61
2022/01/16 09:54:50;;;;;;;91.30;51.90;;;128.70;1971.20;;;;;;5074504;28;20025;-60
2022/01/16 09:57:16;;;;;;;77.32;47.78;;;128.70;2022.40;;;;;;5074498;28;20026;-60
2022/01/16 09:59:45;;;;;;;75.28;45.13;;;128.80;1996.80;;;;;;5074165;28;20490;-60
2022/01/16 10:02:11;;;;;;;88.43;49.65;;;128.80;1971.20;;;;;;5074812;28;20063;-61
2022/01/16 10:04:40;;;;;;;87.72;48.10;;;153.60;1996.80;;;;;;5073988;28;20021;-72
2022/01/16 10:07:08;;;;;;;84.53;46.60;;;153.70;1996.80;;;;;;5074163;28;20040;-60
2022/01/16 10:09:42;;;;;;;88.80;50.92;;;153.80;1945.60;;;;;;5074268;28;20086;-60
2022/01/16 10:12:19;;;;;;;94.80;52.42;;;153.90;1971.20;;;;;;5074184;28;20021;-60
2022/01/16 10:14:50;;;;;;;92.88;49.28;;;153.90;2022.40;;;;;;5074169;28;20035;-61
2022/01/16 10:17:17;;;;;;;92.50;52.65;;;154.00;1945.60;;;;;;5074020;28;20040;-61
2022/01/16 10:19:43;;;;;;;90.63;52.28;;;154.10;2022.40;;;;;;5073810;28;20047;-61
2022/01/16 10:22:11;;;;;;;140.70;66.22;;;154.10;1971.20;;;;;;5074050;28;20058;-60
2022/01/16 10:24:39;;;;;;;127.75;65.32;;;154.10;1945.60;;;;;;5074306;28;20020;-61
2022/01/16 10:27:07;;;;;;;100.85;55.13;;;154.30;1996.80;;;;;;5074028;28;20020;-62
2022/01/16 10:29:40;;;;;;;93.05;52.25;;;154.30;1945.60;;;;;;5073995;28;20020;-60
2022/01/16 10:32:23;;;;;;;97.90;54.13;;;154.40;1894.40;;;;;;5074161;28;20027;-60
2022/01/16 10:34:54;;;;;;;93.63;51.35;;;179.20;1945.60;;;;;;5073872;28;20029;-60
2022/01/16 10:37:19;;;;;;;119.20;59.47;;;179.20;1894.40;;;;;;5073595;28;20474;-60
2022/01/16 10:40:10;;;;;;;95.43;53.33;;;179.20;1894.40;;;;;;5073880;28;20036;-60
2022/01/16 10:42:39;;;;;;;99.85;53.33;;;179.20;1920.00;;;;;;5073692;28;20021;-60
2022/01/16 10:45:13;;;;;;;85.68;49.75;;;179.20;1868.80;;;;;;5073885;28;20081;-60
2022/01/16 10:47:51;;;;;;;82.20;47.17;;;179.30;1894.40;;;;;;5072790;28;20378;-60
2022/01/16 10:50:28;;;;;;;81.40;47.97;;;179.40;1868.80;;;;;;5073159;28;20485;-61
2022/01/16 10:52:59;;;;;;;78.10;47.95;;;179.40;1843.20;;;;;;5073742;28;20029;-60
2022/01/16 10:55:40;;;;;;;71.43;42.03;;;179.50;1920.00;;;;;;5073494;28;20028;-57
2022/01/16 10:58:09;;;;;;;79.60;46.38;;;179.50;1945.60;;;;;;5073487;28;20052;-59
2022/01/16 11:00:38;;;;;;;67.63;40.25;;;179.70;1894.40;;;;;;5073187;28;20048;-58
2022/01/16 11:03:06;;;;;;;62.45;37.65;;;179.80;1868.80;;;;;;5073624;28;20037;-64
2022/01/16 11:05:34;;;;;;;57.15;36.35;;;179.90;1843.20;;;;;;5072066;28;20028;-65
2022/01/16 11:08:05;;;;;;;60.10;37.00;;;180.00;1868.80;;;;;;5073377;28;20021;-64
2022/01/16 11:10:37;;;;;;;54.92;34.92;;;180.10;1843.20;;;;;;5073416;28;20432;-64
2022/01/16 11:13:06;;;;;;;58.83;36.42;;;180.10;1792.00;;;;;;5073365;28;20028;-65
2022/01/16 11:15:34;;;;;;;53.85;34.40;;;180.10;1843.20;;;;;;5073119;28;20082;-64
2022/01/16 11:18:01;;;;;;;55.10;34.50;;;204.80;1817.60;;;;;;5073294;28;20021;-63
2022/01/16 11:20:31;;;;;;;60.50;35.35;;;204.80;1817.60;;;;;;5072608;28;20470;-64
2022/01/16 11:22:59;;;;;;;67.88;38.38;;;204.80;1843.20;;;;;;5073327;28;20056;-64
2022/01/16 11:25:36;;;;;;;95.05;45.10;;;204.90;1792.00;;;;;;5073404;28;20093;-64
2022/01/16 11:28:16;;;;;;;106.80;51.85;;;204.90;1792.00;;;;;;5073031;28;20029;-64
2022/01/16 11:30:52;;;;;;;90.60;48.22;;;205.00;1792.00;;;;;;5073017;28;20367;-64
2022/01/16 11:33:18;;;;;;;74.50;40.45;;;205.00;1766.40;;;;;;5071282;28;20111;-62
2022/01/16 11:35:52;;;;;;;83.97;43.40;;;205.00;1817.60;;;;;;5071479;28;20039;-62
2022/01/16 11:38:20;;;;;;;64.00;34.85;;;205.20;1792.00;;;;;;5072481;28;20102;-60
2022/01/16 11:40:47;;;;;;;63.28;38.40;;;205.20;1894.40;;;;;;5072630;28;20040;-61
2022/01/16 11:43:30;;;;;;;51.85;31.15;;;205.30;1868.80;;;;;;5071984;28;20031;-61
2022/01/16 11:46:05;;;;;;;50.72;31.70;;;205.20;1792.00;;;;;;5057942;28;20032;-60
2022/01/16 11:48:50;;;;;;;59.30;34.60;;;205.30;1792.00;;;;;;5059313;28;20130;-60
2022/01/16 11:51:39;;;;;;;56.60;33.00;;;205.40;1792.00;;;;;;5057849;28;20025;-60
2022/01/16 11:54:15;;;;;;;51.50;31.27;;;205.40;1766.40;;;;;;5092180;28;20090;-60
2022/01/16 11:56:41;;;;;;;60.83;35.78;;;205.50;1740.80;;;;;;5058484;28;20459;-60
2022/01/16 11:59:12;;;;;;;59.63;35.80;;;205.50;1715.20;;;;;;5060245;28;20128;-60
2022/01/16 12:01:48;;;;;;;65.00;36.13;;;205.50;1766.40;;;;;;5058093;28;20068;-60
2022/01/16 12:04:29;;;;;;;67.93;38.85;;;205.60;1740.80;;;;;;5063347;28;20033;-60
2022/01/16 12:06:55;;;;;;;63.75;36.10;;;205.60;1766.40;;;;;;5060753;28;20029;-60
2022/01/16 12:12:11;;;;;;;61.05;34.65;;;205.70;1715.20;;;;;;5062500;28;20018;-60
2022/01/16 12:14:57;;;;;;;58.17;36.20;;;230.40;1715.20;;;;;;5067757;28;20024;-61
2022/01/16 12:17:44;;;;;;;54.42;33.80;;;230.40;1689.60;;;;;;5075715;28;20028;-61
2022/01/16 12:22:52;;;;;;;61.75;35.10;;;230.40;1715.20;;;;;;5075652;28;20025;-61
2022/01/16 12:25:24;;;;;;;54.60;34.15;;;230.40;1715.20;;;;;;5075289;28;20032;-60
2022/01/16 12:27:55;;;;;;;56.45;33.78;;;230.50;1715.20;;;;;;5075342;28;20025;-61
2022/01/16 12:30:32;;;;;;;50.33;32.22;;;230.50;1689.60;;;;;;5074973;28;20032;-60
2022/01/16 12:33:20;;;;;;;54.72;33.20;;;230.60;1689.60;;;;;;5076009;28;20069;-61
2022/01/16 12:35:55;;;;;;;64.15;36.17;;;230.60;1689.60;;;;;;5075981;28;20025;-61
2022/01/16 12:38:24;;;;;;;67.55;39.03;;;230.60;1689.60;;;;;;5075815;28;20531;-61
2022/01/16 12:41:10;;;;;;;52.08;31.33;;;230.60;1689.60;;;;;;5075888;28;20055;-61
2022/01/16 12:43:45;;;;;;;41.40;26.55;;;230.70;1638.40;;;;;;5075884;28;20537;-61
2022/01/16 12:46:25;;;;;;;45.97;27.67;;;230.70;1638.40;;;;;;5074614;28;20029;-61
2022/01/16 12:48:53;;;;;;;42.17;26.55;;;230.70;1612.80;;;;;;5075562;28;20158;-61
2022/01/16 12:51:22;;;;;;;49.75;27.27;;;230.70;1638.40;;;;;;5075718;28;20382;-61
2022/01/16 12:54:11;;;;;;;44.55;26.98;;;230.80;1612.80;;;;;;5075929;28;20020;-61
2022/01/16 12:56:59;;;;;;;42.95;25.52;;;230.80;1638.40;;;;;;5053415;28;20064;-63
2022/01/16 12:59:27;;;;;;;46.80;26.10;;;230.80;1638.40;;;;;;5053366;28;20517;-61
2022/01/16 13:01:54;;;;;;;49.30;28.50;;;230.80;1612.80;;;;;;5053437;28;20040;-61
2022/01/16 13:04:27;;;;;;;43.05;26.77;;;230.90;1612.80;;;;;;5053131;28;20029;-61